Flight Track Log - Related Links

Times and Time Zones

All times are in EDT time to prevent confusion due to time zone crossing. See the SKW6225 flight status page for this flight to view local times or setup timezone preferences in your user account.

Time Position Orientation Groundspeed Altitude Reporting Facility
EDT Latitude Longitude Course Direction KTS MPH feet Rate Location/Type
Sat 04:59:23 PM 41.9744 -87.8603 207° Southwest 176 203 38,000  Level Chicago Center
Sat 05:00:25 PM 41.9306 -87.8897 207° Southwest 250 288 3,400 -15,194 Descending Chicago Center
Sat 05:01:27 PM 41.8636 -87.9583 217° Southwest 253 291 6,600 2,439 Climbing Chicago Center
Sat 05:02:00 PM 41.4834 -88.1300 197° South  Level FlightAware Approximate
Sat 05:02:28 PM 41.8081 -87.9881 202° Southwest 267 307 8,400  Level Chicago Center
Sat 05:03:00 PM 41.3577 -88.1795 201° Southwest  Level FlightAware Approximate
Sat 05:03:44 PM 41.7000 -88.0403 200° South 295 339 11,600  Level Chicago Center
Sat 05:04:00 PM 41.2370 -88.2476 207° Southwest  Level FlightAware Approximate
Sat 05:04:45 PM 41.6131 -88.0814 199° South 333 383 13,000  Level Chicago Center
Sat 05:05:47 PM 41.4994 -88.1367 200° South 366 421 15,100 1,887 Climbing Chicago Center
Sat 05:06:49 PM 41.4014 -88.1839 200° South 390 449 16,900 1,597 Climbing Chicago Center
Sat 05:07:51 PM 41.2989 -88.2292 198° South 397 457 18,400 1,659 Climbing Chicago Center
Sat 05:08:52 PM 41.1928 -88.2769 199° South 405 466 20,300 1,610 Climbing Chicago Center
Sat 05:09:54 PM 41.0644 -88.3361 199° South 412 474 21,700 1,113 Climbing Chicago Center
Sat 05:10:56 PM 40.9500 -88.3856 198° South 429 494 22,600 1,113 Climbing Chicago Center
Sat 05:11:58 PM 40.8319 -88.4389 199° South 448 516 24,000 1,258 Climbing Chicago Center
Sat 05:13:00 PM 40.7183 -88.5086 205° Southwest 462 532 25,200 1,306 Climbing Chicago Center
Sat 05:14:02 PM 40.6197 -88.6231 221° Southwest 474 545 26,700 1,306 Climbing Chicago Center
Sat 05:15:04 PM 40.5000 -88.7581 221° Southwest 477 549 27,900 1,065 Climbing Chicago Center
Sat 05:16:06 PM 40.4022 -88.8708 221° Southwest 484 557 28,900 968 Climbing Chicago Center
Sat 05:17:08 PM 40.2972 -88.9911 221° Southwest 496 571 29,900 927 Climbing Chicago Center
Sat 05:18:09 PM 40.1892 -89.1117 220° Southwest 508 585 30,800 757 Climbing Chicago Center
Sat 05:18:51 PM 40.1233 -89.1850 220° Southwest 506 582 31,200 519 Climbing Kansas City Center
Sat 05:19:53 PM 39.9889 -89.3350 221° Southwest 522 601 31,700 387 Climbing Kansas City Center
Sat 05:20:55 PM 39.8739 -89.4642 221° Southwest 536 617 32,000 581 Climbing Kansas City Center
Sat 05:21:57 PM 39.7553 -89.5967 221° Southwest 553 636 32,900 1,122 Climbing Kansas City Center
Sat 05:22:58 PM 39.6297 -89.7364 221° Southwest 553 636 34,300 1,171 Climbing Kansas City Center
Sat 05:24:00 PM 39.5175 -89.8597 220° Southwest 538 619 35,300 823 Climbing Kansas City Center
Sat 05:25:02 PM 39.4047 -89.9842 220° Southwest 535 616 36,000 774 Climbing Kansas City Center
Sat 05:26:04 PM 39.2917 -90.1089 221° Southwest 536 617 36,900 780 Climbing Kansas City Center
Sat 05:27:05 PM 39.1797 -90.2331 221° Southwest 535 616 37,600 537 Climbing Kansas City Center
Sat 05:28:07 PM 39.0667 -90.3561 220° Southwest 535 616 38,000 194 Climbing Kansas City Center
Sat 05:29:09 PM 38.9386 -90.4953 220° Southwest 535 616 38,000  Level Kansas City Center
Sat 05:30:11 PM 38.8239 -90.6175 220° Southwest 534 615 38,000  Level Kansas City Center
Sat 05:31:13 PM 38.7058 -90.7447 220° Southwest 542 624 38,000  Level Kansas City Center
Sat 05:32:14 PM 38.5917 -90.8644 219° Southwest 541 623 38,000  Level Kansas City Center
Sat 05:33:16 PM 38.4778 -90.9844 220° Southwest 538 619 38,000  Level Kansas City Center
Sat 05:34:18 PM 38.3414 -91.1269 219° Southwest 534 615 38,000  Level Kansas City Center
Sat 05:35:20 PM 38.2267 -91.2450 219° Southwest 532 612 38,000  Level Kansas City Center
Sat 05:36:22 PM 38.1064 -91.3689 219° Southwest 536 617 38,000  Level Kansas City Center
Sat 05:37:24 PM 37.9911 -91.4908 220° Southwest 537 618 38,000  Level Kansas City Center
Sat 05:38:26 PM 37.8769 -91.6106 220° Southwest 531 611 38,000  Level Kansas City Center
Sat 05:39:28 PM 37.7606 -91.7303 219° Southwest 532 612 38,000  Level Kansas City Center
Sat 05:40:29 PM 37.6450 -91.8494 219° Southwest 531 611 38,000  Level Kansas City Center
Sat 05:41:31 PM 37.5278 -91.9697 219° Southwest 535 616 38,000  Level Kansas City Center
Sat 05:42:33 PM 37.3947 -92.1161 221° Southwest 527 606 38,000  Level Kansas City Center
Sat 05:43:35 PM 37.2853 -92.2369 221° Southwest 521 600 38,000  Level Kansas City Center
Sat 05:44:37 PM 37.1753 -92.3592 222° Southwest 523 602 38,000  Level Kansas City Center
Sat 05:45:39 PM 37.0664 -92.4783 221° Southwest 520 598 38,000  Level Kansas City Center
Sat 05:46:41 PM 36.9575 -92.5975 221° Southwest 519 597 38,000  Level Kansas City Center
Sat 05:47:43 PM 36.8489 -92.7169 221° Southwest 518 596 38,000  Level Kansas City Center
Sat 05:48:45 PM 36.7419 -92.8333 221° Southwest 513 590 38,000  Level Kansas City Center
Sat 05:49:47 PM 36.6367 -92.9481 221° Southwest 505 581 38,000  Level Kansas City Center
Sat 05:50:48 PM 36.5197 -93.0750 221° Southwest 501 577 38,000  Level Kansas City Center
Sat 05:51:50 PM 36.4156 -93.1858 221° Southwest 498 573 38,000  Level Kansas City Center
Sat 05:52:26 PM 36.3522 -93.2583 223° Southwest 506 582 38,000  Level Memphis Center
Sat 05:53:26 PM 36.2453 -93.3731 221° Southwest 506 582 38,000  Level Memphis Center
Sat 05:54:26 PM 36.1383 -93.4847 220° Southwest 506 582 38,000  Level Memphis Center
Sat 05:55:26 PM 36.0311 -93.5961 220° Southwest 506 582 38,000  Level Memphis Center
Sat 05:56:26 PM 35.9239 -93.7125 221° Southwest 511 588 38,000  Level Memphis Center
Sat 05:57:26 PM 35.8164 -93.8258 221° Southwest 511 588 38,000  Level Memphis Center
Sat 05:58:26 PM 35.7092 -93.9364 220° Southwest 511 588 38,000  Level Memphis Center
Sat 05:59:26 PM 35.5994 -94.0517 221° Southwest 516 594 38,000  Level Memphis Center
Sat 06:00:26 PM 35.4894 -94.1667 220° Southwest 516 594 38,000  Level Memphis Center
Sat 06:01:26 PM 35.3817 -94.2789 220° Southwest 516 594 38,000  Level Memphis Center
Sat 06:02:26 PM 35.2758 -94.3933 221° Southwest 516 594 38,000  Level Memphis Center
Sat 06:03:26 PM 35.1678 -94.5075 221° Southwest 516 594 38,000  Level Memphis Center
Sat 06:05:03 PM 34.9972 -94.6967 222° Southwest 517 595 38,000  Level Fort Worth Center
Sat 06:06:03 PM 34.8914 -94.8139 222° Southwest 522 601 38,000  Level Fort Worth Center
Sat 06:07:03 PM 34.7850 -94.9283 221° Southwest 522 601 38,000  Level Fort Worth Center
Sat 06:08:03 PM 34.6747 -95.0450 221° Southwest 516 594 38,000  Level Fort Worth Center
Sat 06:09:03 PM 34.5664 -95.1592 221° Southwest 516 594 38,000  Level Fort Worth Center
Sat 06:10:03 PM 34.4578 -95.2753 221° Southwest 521 600 38,000 -650 Level Fort Worth Center
Sat 06:11:03 PM 34.3325 -95.3967 219° Southwest 530 610 36,700 -2,100 Descending Fort Worth Center
Sat 06:12:03 PM 34.2175 -95.5097 219° Southwest 535 616 33,800 -2,950 Descending Fort Worth Center
Sat 06:13:03 PM 34.1064 -95.6175 219° Southwest 535 616 30,800 -2,900 Descending Fort Worth Center
Sat 06:14:03 PM 34.0014 -95.7197 219° Southwest 521 600 28,000 -2,900 Descending Fort Worth Center
Sat 06:15:03 PM 33.8983 -95.8269 221° Southwest 502 578 25,000 -2,950 Descending Fort Worth Center
Sat 06:16:03 PM 33.7994 -95.9214 218° Southwest 486 559 22,100 -2,600 Descending Fort Worth Center
Sat 06:17:03 PM 33.7086 -96.0128 220° Southwest 454 522 19,800 -2,250 Descending Fort Worth Center
Sat 06:18:03 PM 33.6197 -96.0989 219° Southwest 415 478 17,600 -2,050 Descending Fort Worth Center
Sat 06:19:03 PM 33.5411 -96.1772 220° Southwest 388 447 15,700 -2,350 Descending Fort Worth Center
Sat 06:20:03 PM 33.4667 -96.2506 219° Southwest 362 417 12,900 -2,100 Descending Fort Worth Center
Sat 06:21:03 PM 33.4006 -96.3236 223° Southwest 338 389 11,500 -1,250 Descending Fort Worth Center
Sat 06:22:03 PM 33.3492 -96.4039 233° Southwest 315 362 10,400 -1,250 Descending Fort Worth Center
Sat 06:23:03 PM 33.3206 -96.4861 247° West 307 353 9,000 -1,300 Descending Fort Worth Center
Sat 06:24:03 PM 33.2919 -96.5758 249° West 301 346 7,800 -1,200 Descending Fort Worth Center
Sat 06:25:03 PM 33.2611 -96.6756 250° West 301 346 6,600 -1,200 Descending Fort Worth Center
Sat 06:26:03 PM 33.2344 -96.7553 248° West 290 334 5,400 -750 Descending Fort Worth Center
Sat 06:27:03 PM 33.1911 -96.8425 239° Southwest 285 328 5,100 -550 Descending Fort Worth Center
Sat 06:28:03 PM 33.1414 -96.9072 227° Southwest 291 335 4,300 -800 Descending Fort Worth Center
Sat 06:29:03 PM 33.0872 -96.9719 225° Southwest 275 316 3,500 -750 Descending Fort Worth Center
Sat 06:30:03 PM 33.0414 -97.0094 214° Southwest 235 270 2,800 -700 Descending Fort Worth Center

Login

Don't have an account? Register now (free) for customized features, flight alerts, and more!